createdAt,value
2018-06-14T06:43:21.545Z,59.8
2018-06-14T06:53:35.748Z,59.5
2018-06-14T07:03:50.082Z,59.8
2018-06-14T07:14:36.541Z,59.4
2018-06-14T07:24:48.176Z,59.5
2018-06-14T07:36:16.967Z,57.6
2018-06-14T07:46:57.307Z,54.1
2018-06-14T07:57:12.790Z,50.6
2018-06-14T08:07:57.929Z,47.5
2018-06-14T08:18:42.813Z,45.4
2018-06-14T08:29:37.558Z,43.1
2018-06-14T08:39:52.510Z,40.8
2018-06-14T08:50:06.082Z,40.0
2018-06-14T09:00:57.401Z,35.7
2018-06-14T09:12:24.346Z,36.3
2018-06-14T09:22:38.036Z,37.1
2018-06-14T09:32:52.994Z,40.6
2018-06-14T09:43:28.870Z,37.0
2018-06-14T09:56:20.914Z,36.8
2018-06-14T10:13:08.152Z,35.9
2018-06-14T10:47:35.796Z,33.7
2018-06-14T10:57:49.759Z,34.5
2018-06-14T11:08:34.236Z,33.4
2018-06-14T11:18:49.285Z,32.9
2018-06-14T11:29:03.786Z,32.9
2018-06-14T11:39:24.639Z,33.4
2018-06-14T11:49:38.681Z,33.4
2018-06-14T11:59:52.418Z,33.4
2018-06-14T12:10:16.927Z,33.0
2018-06-14T12:20:31.239Z,33.3
2018-06-14T12:30:53.343Z,33.5
2018-06-14T12:41:14.611Z,33.4
2018-06-14T12:51:28.757Z,34.2
2018-06-14T13:01:43.030Z,34.3
2018-06-14T13:12:38.873Z,34.6
2018-06-14T13:22:53.366Z,35.7
2018-06-14T13:33:44.989Z,36.5
2018-06-14T13:44:00.172Z,37.3
2018-06-14T13:54:14.249Z,38.2
2018-06-14T14:05:08.345Z,39.4
2018-06-14T14:15:22.372Z,40.4
2018-06-14T14:26:07.024Z,41.8
2018-06-14T14:36:21.262Z,43.0
2018-06-14T14:47:14.505Z,44.3
2018-06-14T14:57:28.536Z,45.1
2018-06-14T15:10:43.782Z,45.9
2018-06-14T16:16:07.560Z,50.8
2018-06-14T16:26:44.480Z,51.5
2018-06-14T16:37:13.630Z,52.3
2018-06-14T17:51:35.147Z,53.9
2018-06-14T19:47:47.868Z,59.6
2018-06-14T19:58:33.885Z,59.4
2018-06-14T20:08:57.214Z,59.7
2018-06-14T20:19:27.192Z,59.5
2018-06-14T20:30:39.228Z,60.2
2018-06-14T21:02:01.394Z,60.5
2018-06-14T21:12:36.612Z,60.5
2018-06-14T21:22:58.432Z,61.0
2018-06-14T21:43:42.366Z,61.2
2018-06-14T21:53:58.741Z,62.4
2018-06-14T22:14:50.454Z,62.2
2018-06-14T22:25:22.634Z,64.1
2018-06-14T22:37:03.503Z,63.8
2018-06-14T22:48:02.894Z,64.0
2018-06-14T22:58:40.389Z,63.5
2018-06-14T23:09:07.032Z,64.2
2018-06-14T23:30:06.475Z,64.2
2018-06-14T23:40:47.939Z,64.1
2018-06-14T23:51:11.573Z,64.1
